DAOR/CBH METAR and TAF weather

Enter ICAO airport designator
Station Type Date Time Source
DAOR METAR 2019/10/16 19:00 UTC NOAA

DAOR 161900Z 07004KT 9999 FEW033 BKN233 25/06 Q1018


Station Type Date Time Source
DAOR Decoded METAR 2019/10/16 19:00 UTC NOAA

Bechar, Algeria (DAOR) 31-37N 002-14W 773M
Oct 16, 2019 - 03:00 PM EDT / 2019.10.16 1900 UTC
Wind: from the ENE (070 degrees) at 5 MPH (4 KT):0
Visibility: greater than 7 mile(s):0
Sky conditions: mostly cloudy
Temperature: 77 F (25 C)
Dew Point: 42 F (6 C)
Relative Humidity: 29%
Pressure (altimeter): 30.06 in. Hg (1018 hPa)
ob: DAOR 161900Z 07004KT 9999 FEW033 BKN233 25/06 Q1018
cycle: 19

Station Type Date Time Source
DAOR TAF 2017/11/09 18:03 UTC NOAA

TAF DAOR 091700Z 0918/1009 35010KT 6000 FEW033 SCT100
TEMPO 0918/0924 3000 BLSA PROB40
TEMPO 0918/0924 35020G35KT 2000 -TSRA FEW030CB

Example: see airport list